sensor_id;sensor_type;location;lat;lon;timestamp;P1;durP1;ratioP1;P2;durP2;ratioP2
27187;SDS011;14708;50.872;5.306;2023-11-22T00:01:04;3.42;;;2.75;;
27187;SDS011;14708;50.872;5.306;2023-11-22T00:03:33;3.42;;;3.00;;
27187;SDS011;14708;50.872;5.306;2023-11-22T00:05:59;3.85;;;2.85;;
27187;SDS011;14708;50.872;5.306;2023-11-22T00:08:26;4.55;;;3.05;;
27187;SDS011;14708;50.872;5.306;2023-11-22T00:10:52;3.30;;;2.90;;
27187;SDS011;14708;50.872;5.306;2023-11-22T00:13:17;4.88;;;3.30;;
27187;SDS011;14708;50.872;5.306;2023-11-22T00:15:43;4.63;;;3.38;;
27187;SDS011;14708;50.872;5.306;2023-11-22T00:18:11;4.55;;;3.05;;
27187;SDS011;14708;50.872;5.306;2023-11-22T00:20:36;3.90;;;3.30;;
27187;SDS011;14708;50.872;5.306;2023-11-22T00:23:02;5.30;;;3.47;;
27187;SDS011;14708;50.872;5.306;2023-11-22T00:25:31;2.97;;;2.67;;
27187;SDS011;14708;50.872;5.306;2023-11-22T00:27:57;4.07;;;3.08;;
27187;SDS011;14708;50.872;5.306;2023-11-22T00:30:23;3.40;;;2.80;;
27187;SDS011;14708;50.872;5.306;2023-11-22T00:32:49;3.10;;;2.67;;
27187;SDS011;14708;50.872;5.306;2023-11-22T00:35:14;4.93;;;3.13;;
27187;SDS011;14708;50.872;5.306;2023-11-22T00:37:40;4.95;;;3.17;;
27187;SDS011;14708;50.872;5.306;2023-11-22T00:40:06;5.97;;;3.33;;
27187;SDS011;14708;50.872;5.306;2023-11-22T00:42:39;4.18;;;3.40;;
27187;SDS011;14708;50.872;5.306;2023-11-22T00:45:07;4.10;;;3.10;;
27187;SDS011;14708;50.872;5.306;2023-11-22T00:47:34;5.43;;;3.15;;
27187;SDS011;14708;50.872;5.306;2023-11-22T00:50:03;4.00;;;2.80;;
27187;SDS011;14708;50.872;5.306;2023-11-22T00:52:31;3.85;;;3.10;;
27187;SDS011;14708;50.872;5.306;2023-11-22T00:55:00;3.85;;;3.00;;
27187;SDS011;14708;50.872;5.306;2023-11-22T00:57:26;3.80;;;3.35;;
27187;SDS011;14708;50.872;5.306;2023-11-22T00:59:56;4.30;;;2.92;;
27187;SDS011;14708;50.872;5.306;2023-11-22T01:02:22;3.38;;;3.08;;
27187;SDS011;14708;50.872;5.306;2023-11-22T01:04:48;5.25;;;3.17;;
27187;SDS011;14708;50.872;5.306;2023-11-22T01:07:13;4.22;;;3.22;;
27187;SDS011;14708;50.872;5.306;2023-11-22T01:09:39;3.03;;;2.55;;
27187;SDS011;14708;50.872;5.306;2023-11-22T01:12:04;4.22;;;2.72;;
27187;SDS011;14708;50.872;5.306;2023-11-22T01:14:32;3.53;;;2.60;;
27187;SDS011;14708;50.872;5.306;2023-11-22T01:16:58;6.15;;;3.08;;
27187;SDS011;14708;50.872;5.306;2023-11-22T01:19:23;3.70;;;3.33;;
27187;SDS011;14708;50.872;5.306;2023-11-22T01:21:51;4.43;;;3.10;;
27187;SDS011;14708;50.872;5.306;2023-11-22T01:24:16;4.28;;;3.13;;
27187;SDS011;14708;50.872;5.306;2023-11-22T01:26:42;3.00;;;2.63;;
27187;SDS011;14708;50.872;5.306;2023-11-22T01:29:08;3.60;;;2.80;;
27187;SDS011;14708;50.872;5.306;2023-11-22T01:31:33;3.55;;;2.85;;
27187;SDS011;14708;50.872;5.306;2023-11-22T01:33:59;3.65;;;2.80;;
27187;SDS011;14708;50.872;5.306;2023-11-22T01:36:25;3.70;;;3.30;;
27187;SDS011;14708;50.872;5.306;2023-11-22T01:38:51;4.18;;;3.00;;
27187;SDS011;14708;50.872;5.306;2023-11-22T01:41:17;3.63;;;2.80;;
27187;SDS011;14708;50.872;5.306;2023-11-22T01:43:43;3.33;;;2.83;;
27187;SDS011;14708;50.872;5.306;2023-11-22T01:46:09;3.55;;;2.65;;
27187;SDS011;14708;50.872;5.306;2023-11-22T01:48:42;3.95;;;3.15;;
27187;SDS011;14708;50.872;5.306;2023-11-22T01:51:07;3.17;;;2.88;;
27187;SDS011;14708;50.872;5.306;2023-11-22T01:53:33;3.30;;;3.00;;
27187;SDS011;14708;50.872;5.306;2023-11-22T01:55:59;4.05;;;3.00;;
27187;SDS011;14708;50.872;5.306;2023-11-22T01:58:26;3.00;;;2.65;;
27187;SDS011;14708;50.872;5.306;2023-11-22T02:00:52;2.72;;;2.50;;
27187;SDS011;14708;50.872;5.306;2023-11-22T02:03:18;3.47;;;2.92;;
27187;SDS011;14708;50.872;5.306;2023-11-22T02:05:44;5.22;;;3.03;;
27187;SDS011;14708;50.872;5.306;2023-11-22T02:08:10;4.38;;;2.70;;
27187;SDS011;14708;50.872;5.306;2023-11-22T02:10:37;2.65;;;2.33;;
27187;SDS011;14708;50.872;5.306;2023-11-22T02:13:03;4.30;;;2.90;;
27187;SDS011;14708;50.872;5.306;2023-11-22T02:15:32;4.80;;;2.90;;
27187;SDS011;14708;50.872;5.306;2023-11-22T02:18:02;4.03;;;2.90;;
27187;SDS011;14708;50.872;5.306;2023-11-22T02:20:30;3.35;;;2.80;;
27187;SDS011;14708;50.872;5.306;2023-11-22T02:22:55;4.60;;;3.20;;
27187;SDS011;14708;50.872;5.306;2023-11-22T02:25:22;4.95;;;3.00;;
27187;SDS011;14708;50.872;5.306;2023-11-22T02:27:47;3.28;;;2.92;;
27187;SDS011;14708;50.872;5.306;2023-11-22T02:30:13;2.83;;;2.60;;
27187;SDS011;14708;50.872;5.306;2023-11-22T02:32:40;3.30;;;2.80;;
27187;SDS011;14708;50.872;5.306;2023-11-22T02:35:09;4.13;;;2.90;;
27187;SDS011;14708;50.872;5.306;2023-11-22T02:37:34;3.38;;;2.72;;
27187;SDS011;14708;50.872;5.306;2023-11-22T02:40:11;2.92;;;2.50;;
27187;SDS011;14708;50.872;5.306;2023-11-22T02:42:43;3.00;;;2.70;;
27187;SDS011;14708;50.872;5.306;2023-11-22T02:45:08;3.03;;;2.70;;
27187;SDS011;14708;50.872;5.306;2023-11-22T02:47:37;3.15;;;2.85;;
27187;SDS011;14708;50.872;5.306;2023-11-22T02:50:03;3.70;;;2.70;;
27187;SDS011;14708;50.872;5.306;2023-11-22T02:52:32;5.03;;;3.33;;
27187;SDS011;14708;50.872;5.306;2023-11-22T02:55:01;3.17;;;2.63;;
27187;SDS011;14708;50.872;5.306;2023-11-22T02:57:26;3.00;;;2.67;;
27187;SDS011;14708;50.872;5.306;2023-11-22T02:59:52;2.88;;;2.58;;
27187;SDS011;14708;50.872;5.306;2023-11-22T03:02:18;2.97;;;2.60;;
27187;SDS011;14708;50.872;5.306;2023-11-22T03:04:43;2.88;;;2.50;;
27187;SDS011;14708;50.872;5.306;2023-11-22T03:07:09;3.58;;;2.85;;
27187;SDS011;14708;50.872;5.306;2023-11-22T03:09:35;3.08;;;2.75;;
27187;SDS011;14708;50.872;5.306;2023-11-22T03:12:01;3.80;;;2.83;;
27187;SDS011;14708;50.872;5.306;2023-11-22T03:14:27;4.65;;;2.90;;
27187;SDS011;14708;50.872;5.306;2023-11-22T03:16:54;3.10;;;2.75;;
27187;SDS011;14708;50.872;5.306;2023-11-22T03:19:20;3.22;;;2.60;;
27187;SDS011;14708;50.872;5.306;2023-11-22T03:21:46;3.70;;;2.90;;
27187;SDS011;14708;50.872;5.306;2023-11-22T03:24:11;3.60;;;2.58;;
27187;SDS011;14708;50.872;5.306;2023-11-22T03:26:37;3.53;;;3.03;;
27187;SDS011;14708;50.872;5.306;2023-11-22T03:29:04;3.15;;;2.83;;
27187;SDS011;14708;50.872;5.306;2023-11-22T03:31:30;3.20;;;2.55;;
27187;SDS011;14708;50.872;5.306;2023-11-22T03:33:56;3.17;;;2.88;;
27187;SDS011;14708;50.872;5.306;2023-11-22T03:36:22;2.90;;;2.60;;
27187;SDS011;14708;50.872;5.306;2023-11-22T03:38:49;2.55;;;2.35;;
27187;SDS011;14708;50.872;5.306;2023-11-22T03:41:15;2.97;;;2.65;;
27187;SDS011;14708;50.872;5.306;2023-11-22T03:43:42;3.67;;;3.30;;
27187;SDS011;14708;50.872;5.306;2023-11-22T03:46:12;2.67;;;2.30;;
27187;SDS011;14708;50.872;5.306;2023-11-22T03:48:38;3.20;;;2.72;;
27187;SDS011;14708;50.872;5.306;2023-11-22T03:51:03;3.88;;;2.88;;
27187;SDS011;14708;50.872;5.306;2023-11-22T03:53:29;3.10;;;2.80;;
27187;SDS011;14708;50.872;5.306;2023-11-22T03:55:55;3.22;;;2.78;;
27187;SDS011;14708;50.872;5.306;2023-11-22T03:58:20;3.80;;;3.03;;
27187;SDS011;14708;50.872;5.306;2023-11-22T04:00:46;4.03;;;2.85;;
27187;SDS011;14708;50.872;5.306;2023-11-22T04:03:12;2.90;;;2.58;;
27187;SDS011;14708;50.872;5.306;2023-11-22T04:05:38;3.88;;;3.03;;
27187;SDS011;14708;50.872;5.306;2023-11-22T04:08:04;3.45;;;2.67;;
27187;SDS011;14708;50.872;5.306;2023-11-22T04:10:30;3.28;;;2.90;;
27187;SDS011;14708;50.872;5.306;2023-11-22T04:12:56;3.45;;;2.80;;
27187;SDS011;14708;50.872;5.306;2023-11-22T04:15:22;3.10;;;2.63;;
27187;SDS011;14708;50.872;5.306;2023-11-22T04:17:47;3.53;;;2.53;;
27187;SDS011;14708;50.872;5.306;2023-11-22T04:20:14;2.55;;;2.35;;
27187;SDS011;14708;50.872;5.306;2023-11-22T04:22:40;3.65;;;2.92;;
27187;SDS011;14708;50.872;5.306;2023-11-22T04:25:06;3.17;;;2.85;;
27187;SDS011;14708;50.872;5.306;2023-11-22T04:27:33;2.55;;;2.28;;
27187;SDS011;14708;50.872;5.306;2023-11-22T04:29:59;3.08;;;2.58;;
27187;SDS011;14708;50.872;5.306;2023-11-22T04:32:28;3.65;;;3.13;;
27187;SDS011;14708;50.872;5.306;2023-11-22T04:34:53;2.33;;;2.13;;
27187;SDS011;14708;50.872;5.306;2023-11-22T04:37:19;3.17;;;2.88;;
27187;SDS011;14708;50.872;5.306;2023-11-22T04:39:47;3.70;;;2.78;;
27187;SDS011;14708;50.872;5.306;2023-11-22T04:42:17;3.67;;;3.03;;
27187;SDS011;14708;50.872;5.306;2023-11-22T04:44:45;3.00;;;2.70;;
27187;SDS011;14708;50.872;5.306;2023-11-22T04:47:11;3.08;;;2.78;;
27187;SDS011;14708;50.872;5.306;2023-11-22T04:49:37;3.00;;;2.70;;
27187;SDS011;14708;50.872;5.306;2023-11-22T04:52:02;2.78;;;2.50;;
27187;SDS011;14708;50.872;5.306;2023-11-22T04:54:31;4.15;;;2.90;;
27187;SDS011;14708;50.872;5.306;2023-11-22T04:56:59;3.05;;;2.75;;
27187;SDS011;14708;50.872;5.306;2023-11-22T04:59:24;2.85;;;2.63;;
27187;SDS011;14708;50.872;5.306;2023-11-22T05:01:50;3.15;;;2.85;;
27187;SDS011;14708;50.872;5.306;2023-11-22T05:04:16;3.53;;;2.55;;
27187;SDS011;14708;50.872;5.306;2023-11-22T05:07:04;3.25;;;2.47;;
27187;SDS011;14708;50.872;5.306;2023-11-22T05:09:29;3.05;;;2.45;;
27187;SDS011;14708;50.872;5.306;2023-11-22T05:11:55;2.75;;;2.50;;
27187;SDS011;14708;50.872;5.306;2023-11-22T05:14:20;3.47;;;2.92;;
27187;SDS011;14708;50.872;5.306;2023-11-22T05:16:46;2.60;;;2.40;;
27187;SDS011;14708;50.872;5.306;2023-11-22T05:19:14;3.95;;;2.83;;
27187;SDS011;14708;50.872;5.306;2023-11-22T05:21:40;2.90;;;2.60;;
27187;SDS011;14708;50.872;5.306;2023-11-22T05:24:06;3.20;;;2.53;;
27187;SDS011;14708;50.872;5.306;2023-11-22T05:26:32;3.08;;;2.40;;
27187;SDS011;14708;50.872;5.306;2023-11-22T05:28:58;2.60;;;2.40;;
27187;SDS011;14708;50.872;5.306;2023-11-22T05:31:24;2.70;;;2.50;;
27187;SDS011;14708;50.872;5.306;2023-11-22T05:33:50;3.05;;;2.75;;
27187;SDS011;14708;50.872;5.306;2023-11-22T05:36:15;2.42;;;2.22;;
27187;SDS011;14708;50.872;5.306;2023-11-22T05:38:41;2.83;;;2.53;;
27187;SDS011;14708;50.872;5.306;2023-11-22T05:41:07;3.55;;;2.88;;
27187;SDS011;14708;50.872;5.306;2023-11-22T05:43:33;2.55;;;2.35;;
27187;SDS011;14708;50.872;5.306;2023-11-22T05:46:02;2.63;;;2.40;;
27187;SDS011;14708;50.872;5.306;2023-11-22T05:48:28;3.38;;;3.08;;
27187;SDS011;14708;50.872;5.306;2023-11-22T05:50:54;2.78;;;2.58;;
27187;SDS011;14708;50.872;5.306;2023-11-22T05:53:20;3.10;;;2.80;;
27187;SDS011;14708;50.872;5.306;2023-11-22T05:55:48;3.20;;;2.85;;
27187;SDS011;14708;50.872;5.306;2023-11-22T05:58:14;3.15;;;2.50;;
27187;SDS011;14708;50.872;5.306;2023-11-22T06:00:44;3.22;;;2.92;;
27187;SDS011;14708;50.872;5.306;2023-11-22T06:03:13;2.60;;;2.40;;
27187;SDS011;14708;50.872;5.306;2023-11-22T06:05:39;3.33;;;2.90;;
27187;SDS011;14708;50.872;5.306;2023-11-22T06:08:07;3.33;;;3.03;;
27187;SDS011;14708;50.872;5.306;2023-11-22T06:10:36;3.10;;;2.60;;
27187;SDS011;14708;50.872;5.306;2023-11-22T06:13:06;3.45;;;3.15;;
27187;SDS011;14708;50.872;5.306;2023-11-22T06:15:31;2.95;;;2.65;;
27187;SDS011;14708;50.872;5.306;2023-11-22T06:17:57;2.85;;;2.55;;
27187;SDS011;14708;50.872;5.306;2023-11-22T06:20:23;3.17;;;2.88;;
27187;SDS011;14708;50.872;5.306;2023-11-22T06:22:54;3.30;;;2.95;;
27187;SDS011;14708;50.872;5.306;2023-11-22T06:25:19;2.80;;;2.58;;
27187;SDS011;14708;50.872;5.306;2023-11-22T06:27:45;3.08;;;2.78;;
27187;SDS011;14708;50.872;5.306;2023-11-22T06:30:11;3.10;;;2.80;;
27187;SDS011;14708;50.872;5.306;2023-11-22T06:32:37;4.00;;;3.15;;
27187;SDS011;14708;50.872;5.306;2023-11-22T06:35:04;2.70;;;2.50;;
27187;SDS011;14708;50.872;5.306;2023-11-22T06:37:33;3.40;;;2.75;;
27187;SDS011;14708;50.872;5.306;2023-11-22T06:39:59;3.15;;;2.85;;
27187;SDS011;14708;50.872;5.306;2023-11-22T06:42:25;3.55;;;2.83;;
27187;SDS011;14708;50.872;5.306;2023-11-22T06:44:54;3.42;;;3.13;;
27187;SDS011;14708;50.872;5.306;2023-11-22T06:47:23;3.35;;;2.72;;
27187;SDS011;14708;50.872;5.306;2023-11-22T06:49:49;3.95;;;3.40;;
27187;SDS011;14708;50.872;5.306;2023-11-22T06:52:14;3.30;;;3.00;;
27187;SDS011;14708;50.872;5.306;2023-11-22T06:54:42;3.78;;;3.40;;
27187;SDS011;14708;50.872;5.306;2023-11-22T06:57:07;3.13;;;2.70;;
27187;SDS011;14708;50.872;5.306;2023-11-22T06:59:33;2.80;;;2.58;;
27187;SDS011;14708;50.872;5.306;2023-11-22T07:01:59;3.63;;;3.28;;
27187;SDS011;14708;50.872;5.306;2023-11-22T07:04:27;3.10;;;2.90;;
27187;SDS011;14708;50.872;5.306;2023-11-22T07:07:00;2.92;;;2.33;;
27187;SDS011;14708;50.872;5.306;2023-11-22T07:09:27;5.70;;;3.28;;
27187;SDS011;14708;50.872;5.306;2023-11-22T07:11:53;3.88;;;3.58;;
27187;SDS011;14708;50.872;5.306;2023-11-22T07:14:19;6.75;;;4.15;;
27187;SDS011;14708;50.872;5.306;2023-11-22T07:16:45;6.45;;;3.88;;
27187;SDS011;14708;50.872;5.306;2023-11-22T07:19:10;5.50;;;4.10;;
27187;SDS011;14708;50.872;5.306;2023-11-22T07:21:37;4.95;;;3.67;;
27187;SDS011;14708;50.872;5.306;2023-11-22T07:24:03;4.78;;;3.72;;
27187;SDS011;14708;50.872;5.306;2023-11-22T07:26:32;5.80;;;4.53;;
27187;SDS011;14708;50.872;5.306;2023-11-22T07:28:58;4.72;;;3.78;;
27187;SDS011;14708;50.872;5.306;2023-11-22T07:31:24;5.63;;;3.83;;
27187;SDS011;14708;50.872;5.306;2023-11-22T07:33:50;4.47;;;2.85;;
27187;SDS011;14708;50.872;5.306;2023-11-22T07:36:16;4.05;;;3.30;;
27187;SDS011;14708;50.872;5.306;2023-11-22T07:38:42;4.38;;;3.30;;
27187;SDS011;14708;50.872;5.306;2023-11-22T07:41:08;4.07;;;3.58;;
27187;SDS011;14708;50.872;5.306;2023-11-22T07:43:35;5.90;;;4.35;;
27187;SDS011;14708;50.872;5.306;2023-11-22T07:46:07;6.10;;;4.10;;
27187;SDS011;14708;50.872;5.306;2023-11-22T07:48:37;5.18;;;3.90;;
27187;SDS011;14708;50.872;5.306;2023-11-22T07:51:06;7.10;;;3.70;;
27187;SDS011;14708;50.872;5.306;2023-11-22T07:53:33;5.30;;;4.30;;
27187;SDS011;14708;50.872;5.306;2023-11-22T07:56:00;4.97;;;3.80;;
27187;SDS011;14708;50.872;5.306;2023-11-22T07:58:32;7.00;;;4.68;;
27187;SDS011;14708;50.872;5.306;2023-11-22T08:00:59;5.20;;;4.20;;
27187;SDS011;14708;50.872;5.306;2023-11-22T08:03:25;4.72;;;3.70;;
27187;SDS011;14708;50.872;5.306;2023-11-22T08:05:51;5.00;;;3.92;;
27187;SDS011;14708;50.872;5.306;2023-11-22T08:08:21;5.75;;;4.07;;
27187;SDS011;14708;50.872;5.306;2023-11-22T08:10:47;6.13;;;4.68;;
27187;SDS011;14708;50.872;5.306;2023-11-22T08:13:14;6.80;;;4.70;;
27187;SDS011;14708;50.872;5.306;2023-11-22T08:15:41;7.00;;;5.15;;
27187;SDS011;14708;50.872;5.306;2023-11-22T08:18:07;5.55;;;4.47;;
27187;SDS011;14708;50.872;5.306;2023-11-22T08:20:35;5.90;;;4.40;;
27187;SDS011;14708;50.872;5.306;2023-11-22T08:23:00;6.22;;;4.55;;
27187;SDS011;14708;50.872;5.306;2023-11-22T08:25:33;4.93;;;4.03;;
27187;SDS011;14708;50.872;5.306;2023-11-22T08:27:59;6.00;;;4.63;;
27187;SDS011;14708;50.872;5.306;2023-11-22T08:30:26;5.60;;;4.20;;
27187;SDS011;14708;50.872;5.306;2023-11-22T08:32:52;7.20;;;4.97;;
27187;SDS011;14708;50.872;5.306;2023-11-22T08:35:20;7.38;;;4.40;;
27187;SDS011;14708;50.872;5.306;2023-11-22T08:37:47;6.57;;;4.82;;
27187;SDS011;14708;50.872;5.306;2023-11-22T08:40:15;4.40;;;3.88;;
27187;SDS011;14708;50.872;5.306;2023-11-22T08:42:45;5.63;;;5.03;;
27187;SDS011;14708;50.872;5.306;2023-11-22T08:45:11;6.90;;;4.85;;
27187;SDS011;14708;50.872;5.306;2023-11-22T08:47:38;5.55;;;4.70;;
27187;SDS011;14708;50.872;5.306;2023-11-22T08:50:05;6.20;;;4.70;;
27187;SDS011;14708;50.872;5.306;2023-11-22T08:52:32;8.48;;;4.68;;
27187;SDS011;14708;50.872;5.306;2023-11-22T08:55:06;4.70;;;4.25;;
27187;SDS011;14708;50.872;5.306;2023-11-22T08:57:36;5.95;;;4.78;;
27187;SDS011;14708;50.872;5.306;2023-11-22T09:02:32;5.43;;;4.60;;
27187;SDS011;14708;50.872;5.306;2023-11-22T09:04:58;7.38;;;5.10;;
27187;SDS011;14708;50.872;5.306;2023-11-22T09:07:24;6.53;;;4.53;;
27187;SDS011;14708;50.872;5.306;2023-11-22T09:09:49;5.70;;;4.75;;
27187;SDS011;14708;50.872;5.306;2023-11-22T09:12:17;5.15;;;4.43;;
27187;SDS011;14708;50.872;5.306;2023-11-22T09:14:44;6.20;;;4.80;;
27187;SDS011;14708;50.872;5.306;2023-11-22T09:17:10;5.35;;;4.78;;
27187;SDS011;14708;50.872;5.306;2023-11-22T09:19:39;7.82;;;5.32;;
27187;SDS011;14708;50.872;5.306;2023-11-22T09:22:04;6.60;;;5.20;;
27187;SDS011;14708;50.872;5.306;2023-11-22T09:24:33;5.30;;;4.75;;
27187;SDS011;14708;50.872;5.306;2023-11-22T09:27:01;6.28;;;5.10;;
27187;SDS011;14708;50.872;5.306;2023-11-22T09:29:30;5.63;;;4.60;;
27187;SDS011;14708;50.872;5.306;2023-11-22T09:35:46;4.80;;;4.30;;
27187;SDS011;14708;50.872;5.306;2023-11-22T09:38:13;5.75;;;4.35;;
27187;SDS011;14708;50.872;5.306;2023-11-22T09:40:46;7.03;;;5.38;;
27187;SDS011;14708;50.872;5.306;2023-11-22T09:52:32;7.38;;;5.22;;
27187;SDS011;14708;50.872;5.306;2023-11-22T09:55:00;5.22;;;4.72;;
27187;SDS011;14708;50.872;5.306;2023-11-22T09:57:27;7.10;;;5.28;;
27187;SDS011;14708;50.872;5.306;2023-11-22T10:00:04;7.45;;;5.40;;
27187;SDS011;14708;50.872;5.306;2023-11-22T10:02:32;6.22;;;5.22;;
27187;SDS011;14708;50.872;5.306;2023-11-22T10:05:00;7.05;;;5.57;;
27187;SDS011;14708;50.872;5.306;2023-11-22T10:07:26;5.80;;;5.18;;
27187;SDS011;14708;50.872;5.306;2023-11-22T10:09:52;6.82;;;5.05;;
27187;SDS011;14708;50.872;5.306;2023-11-22T10:12:20;6.57;;;5.18;;
27187;SDS011;14708;50.872;5.306;2023-11-22T10:14:47;5.90;;;5.25;;
27187;SDS011;14708;50.872;5.306;2023-11-22T10:17:13;5.45;;;4.78;;
27187;SDS011;14708;50.872;5.306;2023-11-22T10:19:41;6.07;;;5.00;;
27187;SDS011;14708;50.872;5.306;2023-11-22T10:22:07;6.88;;;5.35;;
27187;SDS011;14708;50.872;5.306;2023-11-22T10:24:34;6.65;;;5.50;;
27187;SDS011;14708;50.872;5.306;2023-11-22T10:27:03;5.85;;;5.25;;
27187;SDS011;14708;50.872;5.306;2023-11-22T10:29:29;7.03;;;5.45;;
27187;SDS011;14708;50.872;5.306;2023-11-22T10:31:55;5.30;;;4.75;;
27187;SDS011;14708;50.872;5.306;2023-11-22T10:34:22;5.82;;;5.22;;
27187;SDS011;14708;50.872;5.306;2023-11-22T10:36:49;5.82;;;4.65;;
27187;SDS011;14708;50.872;5.306;2023-11-22T10:39:20;6.95;;;4.45;;
27187;SDS011;14708;50.872;5.306;2023-11-22T10:41:46;6.70;;;5.20;;
27187;SDS011;14708;50.872;5.306;2023-11-22T10:44:13;5.70;;;4.95;;
27187;SDS011;14708;50.872;5.306;2023-11-22T10:46:43;4.90;;;4.40;;
27187;SDS011;14708;50.872;5.306;2023-11-22T10:49:12;7.53;;;5.40;;
27187;SDS011;14708;50.872;5.306;2023-11-22T10:51:39;5.50;;;4.78;;
27187;SDS011;14708;50.872;5.306;2023-11-22T10:54:06;6.65;;;5.18;;
27187;SDS011;14708;50.872;5.306;2023-11-22T10:56:36;5.95;;;5.35;;
27187;SDS011;14708;50.872;5.306;2023-11-22T10:59:10;6.45;;;5.43;;
27187;SDS011;14708;50.872;5.306;2023-11-22T11:01:58;5.63;;;5.00;;
27187;SDS011;14708;50.872;5.306;2023-11-22T11:04:34;6.00;;;4.97;;
27187;SDS011;14708;50.872;5.306;2023-11-22T11:07:07;6.22;;;4.90;;
27187;SDS011;14708;50.872;5.306;2023-11-22T11:09:37;6.70;;;5.43;;
27187;SDS011;14708;50.872;5.306;2023-11-22T11:12:04;5.70;;;5.10;;
27187;SDS011;14708;50.872;5.306;2023-11-22T11:14:31;6.00;;;4.95;;
27187;SDS011;14708;50.872;5.306;2023-11-22T11:16:57;6.03;;;4.50;;
27187;SDS011;14708;50.872;5.306;2023-11-22T11:19:23;5.60;;;4.85;;
27187;SDS011;14708;50.872;5.306;2023-11-22T11:21:50;6.82;;;4.68;;
27187;SDS011;14708;50.872;5.306;2023-11-22T11:24:16;6.57;;;5.13;;
27187;SDS011;14708;50.872;5.306;2023-11-22T11:26:48;6.90;;;5.20;;
27187;SDS011;14708;50.872;5.306;2023-11-22T11:29:33;5.22;;;4.68;;
27187;SDS011;14708;50.872;5.306;2023-11-22T11:32:04;7.93;;;4.85;;
27187;SDS011;14708;50.872;5.306;2023-11-22T11:34:45;6.47;;;5.28;;
27187;SDS011;14708;50.872;5.306;2023-11-22T11:37:29;6.45;;;5.00;;
27187;SDS011;14708;50.872;5.306;2023-11-22T11:39:55;6.32;;;5.03;;
27187;SDS011;14708;50.872;5.306;2023-11-22T11:42:20;9.73;;;5.20;;
27187;SDS011;14708;50.872;5.306;2023-11-22T11:47:24;7.78;;;5.80;;
27187;SDS011;14708;50.872;5.306;2023-11-22T11:49:50;6.82;;;5.47;;
27187;SDS011;14708;50.872;5.306;2023-11-22T11:52:19;9.48;;;5.10;;
27187;SDS011;14708;50.872;5.306;2023-11-22T11:54:46;8.75;;;5.07;;
27187;SDS011;14708;50.872;5.306;2023-11-22T11:57:11;6.15;;;4.70;;
27187;SDS011;14708;50.872;5.306;2023-11-22T11:59:37;7.82;;;5.03;;
27187;SDS011;14708;50.872;5.306;2023-11-22T12:02:06;8.15;;;5.25;;
27187;SDS011;14708;50.872;5.306;2023-11-22T12:04:32;5.68;;;5.00;;
27187;SDS011;14708;50.872;5.306;2023-11-22T12:07:00;8.88;;;5.57;;
27187;SDS011;14708;50.872;5.306;2023-11-22T12:09:26;6.18;;;4.55;;
27187;SDS011;14708;50.872;5.306;2023-11-22T12:11:54;8.70;;;5.10;;
27187;SDS011;14708;50.872;5.306;2023-11-22T12:14:20;6.57;;;5.25;;
27187;SDS011;14708;50.872;5.306;2023-11-22T12:16:50;7.10;;;5.20;;
27187;SDS011;14708;50.872;5.306;2023-11-22T12:19:28;9.05;;;6.25;;
27187;SDS011;14708;50.872;5.306;2023-11-22T12:21:56;12.65;;;6.30;;
27187;SDS011;14708;50.872;5.306;2023-11-22T12:24:23;9.63;;;5.85;;
27187;SDS011;14708;50.872;5.306;2023-11-22T12:26:49;13.50;;;6.25;;
27187;SDS011;14708;50.872;5.306;2023-11-22T12:29:16;16.80;;;7.78;;
27187;SDS011;14708;50.872;5.306;2023-11-22T12:34:17;15.30;;;7.00;;
27187;SDS011;14708;50.872;5.306;2023-11-22T12:36:48;17.02;;;7.38;;
27187;SDS011;14708;50.872;5.306;2023-11-22T12:39:14;16.60;;;7.53;;
27187;SDS011;14708;50.872;5.306;2023-11-22T12:41:44;14.73;;;7.90;;
27187;SDS011;14708;50.872;5.306;2023-11-22T12:44:15;17.83;;;7.38;;
27187;SDS011;14708;50.872;5.306;2023-11-22T12:46:45;17.77;;;7.50;;
27187;SDS011;14708;50.872;5.306;2023-11-22T12:49:15;15.23;;;6.93;;
27187;SDS011;14708;50.872;5.306;2023-11-22T12:52:02;13.15;;;6.63;;
27187;SDS011;14708;50.872;5.306;2023-11-22T12:54:30;16.42;;;7.07;;
27187;SDS011;14708;50.872;5.306;2023-11-22T12:56:58;13.48;;;7.00;;
27187;SDS011;14708;50.872;5.306;2023-11-22T12:59:24;15.50;;;7.18;;
27187;SDS011;14708;50.872;5.306;2023-11-22T13:01:52;16.30;;;7.93;;
27187;SDS011;14708;50.872;5.306;2023-11-22T13:04:19;16.20;;;8.02;;
27187;SDS011;14708;50.872;5.306;2023-11-22T13:06:46;13.57;;;7.53;;
27187;SDS011;14708;50.872;5.306;2023-11-22T13:09:12;16.50;;;7.82;;
27187;SDS011;14708;50.872;5.306;2023-11-22T13:14:11;11.63;;;6.72;;
27187;SDS011;14708;50.872;5.306;2023-11-22T13:16:39;13.52;;;6.70;;
27187;SDS011;14708;50.872;5.306;2023-11-22T13:19:05;11.75;;;7.53;;
27187;SDS011;14708;50.872;5.306;2023-11-22T13:21:31;12.90;;;8.00;;
27187;SDS011;14708;50.872;5.306;2023-11-22T13:23:57;17.77;;;8.43;;
27187;SDS011;14708;50.872;5.306;2023-11-22T13:26:26;11.33;;;8.47;;
27187;SDS011;14708;50.872;5.306;2023-11-22T13:28:52;14.55;;;9.07;;
27187;SDS011;14708;50.872;5.306;2023-11-22T13:31:21;15.80;;;9.27;;
27187;SDS011;14708;50.872;5.306;2023-11-22T13:33:47;13.20;;;9.13;;
27187;SDS011;14708;50.872;5.306;2023-11-22T13:36:13;14.70;;;9.45;;
27187;SDS011;14708;50.872;5.306;2023-11-22T13:38:40;10.45;;;8.88;;
27187;SDS011;14708;50.872;5.306;2023-11-22T13:41:08;17.52;;;10.80;;
27187;SDS011;14708;50.872;5.306;2023-11-22T13:43:36;59.95;;;21.38;;
27187;SDS011;14708;50.872;5.306;2023-11-22T13:46:05;53.45;;;20.30;;
27187;SDS011;14708;50.872;5.306;2023-11-22T13:48:35;56.38;;;18.75;;
27187;SDS011;14708;50.872;5.306;2023-11-22T13:51:01;50.15;;;17.23;;
27187;SDS011;14708;50.872;5.306;2023-11-22T13:53:28;49.05;;;17.52;;
27187;SDS011;14708;50.872;5.306;2023-11-22T13:55:58;56.30;;;16.63;;
27187;SDS011;14708;50.872;5.306;2023-11-22T13:58:29;41.45;;;15.75;;
27187;SDS011;14708;50.872;5.306;2023-11-22T14:00:57;46.85;;;17.30;;
27187;SDS011;14708;50.872;5.306;2023-11-22T14:03:24;40.55;;;16.25;;
27187;SDS011;14708;50.872;5.306;2023-11-22T14:05:49;33.08;;;15.02;;
27187;SDS011;14708;50.872;5.306;2023-11-22T14:08:15;38.83;;;15.20;;
27187;SDS011;14708;50.872;5.306;2023-11-22T14:10:41;35.55;;;14.63;;
27187;SDS011;14708;50.872;5.306;2023-11-22T14:13:07;37.08;;;14.13;;
27187;SDS011;14708;50.872;5.306;2023-11-22T14:15:33;36.17;;;14.45;;
27187;SDS011;14708;50.872;5.306;2023-11-22T14:17:59;36.88;;;14.52;;
27187;SDS011;14708;50.872;5.306;2023-11-22T14:20:30;33.90;;;14.77;;
27187;SDS011;14708;50.872;5.306;2023-11-22T14:22:56;40.42;;;14.75;;
27187;SDS011;14708;50.872;5.306;2023-11-22T14:25:21;39.38;;;15.10;;
27187;SDS011;14708;50.872;5.306;2023-11-22T14:27:47;27.00;;;12.13;;
27187;SDS011;14708;50.872;5.306;2023-11-22T14:30:17;39.13;;;14.35;;
27187;SDS011;14708;50.872;5.306;2023-11-22T14:32:46;35.63;;;13.95;;
27187;SDS011;14708;50.872;5.306;2023-11-22T14:35:11;36.72;;;14.20;;
27187;SDS011;14708;50.872;5.306;2023-11-22T14:37:37;31.90;;;13.23;;
27187;SDS011;14708;50.872;5.306;2023-11-22T14:40:07;30.85;;;13.75;;
27187;SDS011;14708;50.872;5.306;2023-11-22T14:42:45;31.38;;;12.63;;
27187;SDS011;14708;50.872;5.306;2023-11-22T14:45:12;35.28;;;12.43;;
27187;SDS011;14708;50.872;5.306;2023-11-22T14:47:39;28.05;;;13.38;;
27187;SDS011;14708;50.872;5.306;2023-11-22T14:50:05;25.50;;;12.30;;
27187;SDS011;14708;50.872;5.306;2023-11-22T14:52:35;27.02;;;11.85;;
27187;SDS011;14708;50.872;5.306;2023-11-22T14:55:00;30.90;;;13.80;;
27187;SDS011;14708;50.872;5.306;2023-11-22T14:57:26;26.35;;;13.05;;
27187;SDS011;14708;50.872;5.306;2023-11-22T14:59:54;29.13;;;13.40;;
27187;SDS011;14708;50.872;5.306;2023-11-22T15:04:53;36.00;;;15.07;;
27187;SDS011;14708;50.872;5.306;2023-11-22T15:07:21;36.30;;;14.63;;
27187;SDS011;14708;50.872;5.306;2023-11-22T15:09:47;35.55;;;14.82;;